sensor_id;sensor_type;location;lat;lon;timestamp;P1;durP1;ratioP1;P2;durP2;ratioP2
60370;SDS011;48550;40.588;49.684;2023-06-10T00:01:42;24.70;;;9.98;;
60370;SDS011;48550;40.588;49.684;2023-06-10T00:04:08;16.38;;;7.65;;
60370;SDS011;48550;40.588;49.684;2023-06-10T00:06:34;12.75;;;6.93;;
60370;SDS011;48550;40.588;49.684;2023-06-10T00:09:03;24.98;;;7.82;;
60370;SDS011;48550;40.588;49.684;2023-06-10T00:11:33;17.77;;;6.90;;
60370;SDS011;48550;40.588;49.684;2023-06-10T00:13:59;13.93;;;5.72;;
60370;SDS011;48550;40.588;49.684;2023-06-10T00:16:25;12.43;;;5.70;;
60370;SDS011;48550;40.588;49.684;2023-06-10T00:18:51;10.15;;;4.80;;
60370;SDS011;48550;40.588;49.684;2023-06-10T00:21:17;11.95;;;5.13;;
60370;SDS011;48550;40.588;49.684;2023-06-10T00:23:44;11.27;;;5.35;;
60370;SDS011;48550;40.588;49.684;2023-06-10T00:26:10;15.18;;;5.32;;
60370;SDS011;48550;40.588;49.684;2023-06-10T00:28:35;13.75;;;5.10;;
60370;SDS011;48550;40.588;49.684;2023-06-10T00:31:01;14.98;;;4.88;;
60370;SDS011;48550;40.588;49.684;2023-06-10T00:33:27;11.35;;;5.03;;
60370;SDS011;48550;40.588;49.684;2023-06-10T00:35:53;8.20;;;4.00;;
60370;SDS011;48550;40.588;49.684;2023-06-10T00:38:19;12.05;;;4.65;;
60370;SDS011;48550;40.588;49.684;2023-06-10T00:40:45;11.07;;;4.72;;
60370;SDS011;48550;40.588;49.684;2023-06-10T00:43:11;11.45;;;4.50;;
60370;SDS011;48550;40.588;49.684;2023-06-10T00:45:36;10.80;;;4.30;;
60370;SDS011;48550;40.588;49.684;2023-06-10T00:48:02;11.77;;;4.30;;
60370;SDS011;48550;40.588;49.684;2023-06-10T00:50:29;9.50;;;4.43;;
60370;SDS011;48550;40.588;49.684;2023-06-10T00:52:56;11.93;;;4.93;;
60370;SDS011;48550;40.588;49.684;2023-06-10T00:55:22;14.35;;;4.68;;
60370;SDS011;48550;40.588;49.684;2023-06-10T00:57:49;12.70;;;4.78;;
60370;SDS011;48550;40.588;49.684;2023-06-10T01:00:16;10.27;;;4.43;;
60370;SDS011;48550;40.588;49.684;2023-06-10T01:02:42;9.80;;;4.63;;
60370;SDS011;48550;40.588;49.684;2023-06-10T01:05:08;8.68;;;4.53;;
60370;SDS011;48550;40.588;49.684;2023-06-10T01:10:28;9.95;;;4.45;;
60370;SDS011;48550;40.588;49.684;2023-06-10T01:12:59;12.13;;;5.80;;
60370;SDS011;48550;40.588;49.684;2023-06-10T01:15:32;11.27;;;5.80;;
60370;SDS011;48550;40.588;49.684;2023-06-10T01:18:02;13.40;;;5.75;;
60370;SDS011;48550;40.588;49.684;2023-06-10T01:20:30;12.18;;;5.43;;
60370;SDS011;48550;40.588;49.684;2023-06-10T01:23:01;9.70;;;4.88;;
60370;SDS011;48550;40.588;49.684;2023-06-10T01:25:28;15.25;;;6.43;;
60370;SDS011;48550;40.588;49.684;2023-06-10T01:33:52;9.57;;;5.45;;
60370;SDS011;48550;40.588;49.684;2023-06-10T01:36:19;6.65;;;5.35;;
60370;SDS011;48550;40.588;49.684;2023-06-10T01:38:47;14.27;;;5.35;;
60370;SDS011;48550;40.588;49.684;2023-06-10T01:41:18;7.85;;;5.20;;
60370;SDS011;48550;40.588;49.684;2023-06-10T01:43:46;10.10;;;5.53;;
60370;SDS011;48550;40.588;49.684;2023-06-10T01:46:13;13.93;;;6.13;;
60370;SDS011;48550;40.588;49.684;2023-06-10T01:48:41;9.88;;;5.18;;
60370;SDS011;48550;40.588;49.684;2023-06-10T01:51:07;8.98;;;5.15;;
60370;SDS011;48550;40.588;49.684;2023-06-10T01:53:33;9.75;;;4.90;;
60370;SDS011;48550;40.588;49.684;2023-06-10T01:55:59;12.90;;;5.03;;
60370;SDS011;48550;40.588;49.684;2023-06-10T01:58:25;12.65;;;5.38;;
60370;SDS011;48550;40.588;49.684;2023-06-10T02:00:50;10.95;;;4.57;;
60370;SDS011;48550;40.588;49.684;2023-06-10T02:03:16;13.38;;;5.53;;
60370;SDS011;48550;40.588;49.684;2023-06-10T02:05:42;16.73;;;5.07;;
60370;SDS011;48550;40.588;49.684;2023-06-10T02:08:08;10.85;;;4.60;;
60370;SDS011;48550;40.588;49.684;2023-06-10T02:10:33;8.65;;;4.50;;
60370;SDS011;48550;40.588;49.684;2023-06-10T02:12:59;9.38;;;4.32;;
60370;SDS011;48550;40.588;49.684;2023-06-10T02:15:25;9.73;;;4.40;;
60370;SDS011;48550;40.588;49.684;2023-06-10T02:17:51;9.00;;;4.03;;
60370;SDS011;48550;40.588;49.684;2023-06-10T02:20:17;10.00;;;4.57;;
60370;SDS011;48550;40.588;49.684;2023-06-10T02:22:43;7.78;;;4.13;;
60370;SDS011;48550;40.588;49.684;2023-06-10T02:25:09;9.43;;;4.72;;
60370;SDS011;48550;40.588;49.684;2023-06-10T02:27:35;8.57;;;4.63;;
60370;SDS011;48550;40.588;49.684;2023-06-10T02:30:00;11.73;;;4.40;;
60370;SDS011;48550;40.588;49.684;2023-06-10T02:32:26;13.63;;;5.00;;
60370;SDS011;48550;40.588;49.684;2023-06-10T02:34:53;7.90;;;4.15;;
60370;SDS011;48550;40.588;49.684;2023-06-10T02:37:19;8.27;;;4.00;;
60370;SDS011;48550;40.588;49.684;2023-06-10T02:39:45;7.65;;;4.18;;
60370;SDS011;48550;40.588;49.684;2023-06-10T02:42:11;8.73;;;3.85;;
60370;SDS011;48550;40.588;49.684;2023-06-10T02:44:37;10.10;;;4.03;;
60370;SDS011;48550;40.588;49.684;2023-06-10T02:47:03;8.70;;;4.10;;
60370;SDS011;48550;40.588;49.684;2023-06-10T02:49:29;7.15;;;3.67;;
60370;SDS011;48550;40.588;49.684;2023-06-10T02:51:55;8.00;;;4.15;;
60370;SDS011;48550;40.588;49.684;2023-06-10T02:54:24;8.57;;;4.00;;
60370;SDS011;48550;40.588;49.684;2023-06-10T02:56:51;7.82;;;4.32;;
60370;SDS011;48550;40.588;49.684;2023-06-10T02:59:18;8.55;;;4.00;;
60370;SDS011;48550;40.588;49.684;2023-06-10T03:01:44;13.23;;;4.22;;
60370;SDS011;48550;40.588;49.684;2023-06-10T03:04:11;6.13;;;3.92;;
60370;SDS011;48550;40.588;49.684;2023-06-10T03:06:38;9.85;;;3.78;;
60370;SDS011;48550;40.588;49.684;2023-06-10T03:09:06;7.72;;;3.70;;
60370;SDS011;48550;40.588;49.684;2023-06-10T03:11:34;5.95;;;3.35;;
60370;SDS011;48550;40.588;49.684;2023-06-10T03:14:00;7.78;;;3.70;;
60370;SDS011;48550;40.588;49.684;2023-06-10T03:16:26;8.68;;;3.85;;
60370;SDS011;48550;40.588;49.684;2023-06-10T03:18:52;8.13;;;3.85;;
60370;SDS011;48550;40.588;49.684;2023-06-10T03:21:18;8.77;;;3.85;;
60370;SDS011;48550;40.588;49.684;2023-06-10T03:23:44;7.95;;;3.50;;
60370;SDS011;48550;40.588;49.684;2023-06-10T03:26:11;7.45;;;3.53;;
60370;SDS011;48550;40.588;49.684;2023-06-10T03:28:39;9.38;;;3.97;;
60370;SDS011;48550;40.588;49.684;2023-06-10T03:31:08;10.75;;;3.63;;
60370;SDS011;48550;40.588;49.684;2023-06-10T03:33:34;8.13;;;3.72;;
60370;SDS011;48550;40.588;49.684;2023-06-10T03:36:01;9.70;;;3.60;;
60370;SDS011;48550;40.588;49.684;2023-06-10T03:38:26;9.35;;;3.47;;
60370;SDS011;48550;40.588;49.684;2023-06-10T03:40:52;7.80;;;3.47;;
60370;SDS011;48550;40.588;49.684;2023-06-10T03:43:19;5.68;;;3.50;;
60370;SDS011;48550;40.588;49.684;2023-06-10T03:45:45;8.85;;;3.75;;
60370;SDS011;48550;40.588;49.684;2023-06-10T03:48:11;11.18;;;3.25;;
60370;SDS011;48550;40.588;49.684;2023-06-10T03:50:37;7.35;;;4.15;;
60370;SDS011;48550;40.588;49.684;2023-06-10T03:53:02;6.60;;;4.10;;
60370;SDS011;48550;40.588;49.684;2023-06-10T03:55:28;8.85;;;3.85;;
60370;SDS011;48550;40.588;49.684;2023-06-10T03:57:54;9.10;;;3.42;;
60370;SDS011;48550;40.588;49.684;2023-06-10T04:00:20;9.82;;;3.40;;
60370;SDS011;48550;40.588;49.684;2023-06-10T04:02:47;9.10;;;3.60;;
60370;SDS011;48550;40.588;49.684;2023-06-10T04:05:17;8.27;;;3.30;;
60370;SDS011;48550;40.588;49.684;2023-06-10T04:07:47;5.95;;;2.88;;
60370;SDS011;48550;40.588;49.684;2023-06-10T04:10:13;7.57;;;3.40;;
60370;SDS011;48550;40.588;49.684;2023-06-10T04:12:40;6.20;;;2.70;;
60370;SDS011;48550;40.588;49.684;2023-06-10T04:15:07;5.43;;;2.80;;
60370;SDS011;48550;40.588;49.684;2023-06-10T04:17:33;5.78;;;2.95;;
60370;SDS011;48550;40.588;49.684;2023-06-10T04:19:59;7.00;;;3.35;;
60370;SDS011;48550;40.588;49.684;2023-06-10T04:22:25;9.40;;;3.20;;
60370;SDS011;48550;40.588;49.684;2023-06-10T04:24:52;8.85;;;3.42;;
60370;SDS011;48550;40.588;49.684;2023-06-10T04:27:18;10.10;;;3.33;;
60370;SDS011;48550;40.588;49.684;2023-06-10T04:29:44;10.05;;;3.50;;
60370;SDS011;48550;40.588;49.684;2023-06-10T04:32:10;9.95;;;3.38;;
60370;SDS011;48550;40.588;49.684;2023-06-10T04:34:36;6.07;;;2.95;;
60370;SDS011;48550;40.588;49.684;2023-06-10T04:37:05;12.27;;;3.00;;
60370;SDS011;48550;40.588;49.684;2023-06-10T04:39:31;10.65;;;3.20;;
60370;SDS011;48550;40.588;49.684;2023-06-10T04:41:57;8.82;;;2.75;;
60370;SDS011;48550;40.588;49.684;2023-06-10T04:44:23;12.45;;;3.40;;
60370;SDS011;48550;40.588;49.684;2023-06-10T04:46:51;6.57;;;2.80;;
60370;SDS011;48550;40.588;49.684;2023-06-10T04:49:16;6.50;;;3.05;;
60370;SDS011;48550;40.588;49.684;2023-06-10T04:51:42;7.97;;;3.40;;
60370;SDS011;48550;40.588;49.684;2023-06-10T04:54:08;10.15;;;4.82;;
60370;SDS011;48550;40.588;49.684;2023-06-10T04:56:33;9.30;;;3.30;;
60370;SDS011;48550;40.588;49.684;2023-06-10T04:58:59;7.65;;;2.60;;
60370;SDS011;48550;40.588;49.684;2023-06-10T05:01:25;8.93;;;3.13;;
60370;SDS011;48550;40.588;49.684;2023-06-10T05:03:52;5.38;;;2.70;;
60370;SDS011;48550;40.588;49.684;2023-06-10T05:06:18;7.43;;;3.10;;
60370;SDS011;48550;40.588;49.684;2023-06-10T05:08:44;12.57;;;3.53;;
60370;SDS011;48550;40.588;49.684;2023-06-10T05:11:09;11.82;;;3.15;;
60370;SDS011;48550;40.588;49.684;2023-06-10T05:13:35;6.55;;;2.70;;
60370;SDS011;48550;40.588;49.684;2023-06-10T05:16:01;10.05;;;2.75;;
60370;SDS011;48550;40.588;49.684;2023-06-10T05:18:27;5.15;;;2.80;;
60370;SDS011;48550;40.588;49.684;2023-06-10T05:20:53;6.72;;;2.88;;
60370;SDS011;48550;40.588;49.684;2023-06-10T05:23:21;8.15;;;2.97;;
60370;SDS011;48550;40.588;49.684;2023-06-10T05:25:47;6.82;;;3.33;;
60370;SDS011;48550;40.588;49.684;2023-06-10T05:28:13;9.02;;;2.83;;
60370;SDS011;48550;40.588;49.684;2023-06-10T05:30:39;5.90;;;3.08;;
60370;SDS011;48550;40.588;49.684;2023-06-10T05:33:07;9.68;;;3.28;;
60370;SDS011;48550;40.588;49.684;2023-06-10T05:35:33;9.55;;;3.10;;
60370;SDS011;48550;40.588;49.684;2023-06-10T05:37:58;8.32;;;2.78;;
60370;SDS011;48550;40.588;49.684;2023-06-10T05:40:24;9.40;;;3.10;;
60370;SDS011;48550;40.588;49.684;2023-06-10T05:42:50;6.45;;;3.75;;
60370;SDS011;48550;40.588;49.684;2023-06-10T05:45:16;7.97;;;2.97;;
60370;SDS011;48550;40.588;49.684;2023-06-10T05:47:41;11.70;;;3.20;;
60370;SDS011;48550;40.588;49.684;2023-06-10T05:50:07;13.70;;;3.17;;
60370;SDS011;48550;40.588;49.684;2023-06-10T05:52:34;12.13;;;3.90;;
60370;SDS011;48550;40.588;49.684;2023-06-10T05:55:07;7.57;;;3.10;;
60370;SDS011;48550;40.588;49.684;2023-06-10T05:57:33;5.75;;;2.58;;
60370;SDS011;48550;40.588;49.684;2023-06-10T05:59:59;8.63;;;3.60;;
60370;SDS011;48550;40.588;49.684;2023-06-10T06:02:25;6.65;;;2.88;;
60370;SDS011;48550;40.588;49.684;2023-06-10T06:04:50;6.97;;;2.50;;
60370;SDS011;48550;40.588;49.684;2023-06-10T06:07:16;7.10;;;2.70;;
60370;SDS011;48550;40.588;49.684;2023-06-10T06:09:42;15.55;;;4.45;;
60370;SDS011;48550;40.588;49.684;2023-06-10T06:12:08;12.60;;;4.35;;
60370;SDS011;48550;40.588;49.684;2023-06-10T06:14:37;8.25;;;3.03;;
60370;SDS011;48550;40.588;49.684;2023-06-10T06:17:07;7.68;;;2.95;;
60370;SDS011;48550;40.588;49.684;2023-06-10T06:19:33;12.35;;;2.95;;
60370;SDS011;48550;40.588;49.684;2023-06-10T06:21:59;14.52;;;4.25;;
60370;SDS011;48550;40.588;49.684;2023-06-10T06:24:24;10.57;;;3.17;;
60370;SDS011;48550;40.588;49.684;2023-06-10T06:26:50;7.35;;;2.55;;
60370;SDS011;48550;40.588;49.684;2023-06-10T06:29:16;6.40;;;2.90;;
60370;SDS011;48550;40.588;49.684;2023-06-10T06:31:42;10.52;;;2.83;;
60370;SDS011;48550;40.588;49.684;2023-06-10T06:34:07;6.68;;;2.70;;
60370;SDS011;48550;40.588;49.684;2023-06-10T06:36:33;9.95;;;3.78;;
60370;SDS011;48550;40.588;49.684;2023-06-10T06:39:01;8.35;;;2.75;;
60370;SDS011;48550;40.588;49.684;2023-06-10T06:41:27;9.50;;;2.80;;
60370;SDS011;48550;40.588;49.684;2023-06-10T06:43:53;8.57;;;3.00;;
60370;SDS011;48550;40.588;49.684;2023-06-10T06:46:20;10.73;;;3.38;;
60370;SDS011;48550;40.588;49.684;2023-06-10T06:48:47;6.45;;;2.75;;
60370;SDS011;48550;40.588;49.684;2023-06-10T06:51:13;6.18;;;3.03;;
60370;SDS011;48550;40.588;49.684;2023-06-10T06:53:39;11.10;;;4.07;;
60370;SDS011;48550;40.588;49.684;2023-06-10T06:56:09;9.90;;;2.80;;
60370;SDS011;48550;40.588;49.684;2023-06-10T06:58:36;11.77;;;2.90;;
60370;SDS011;48550;40.588;49.684;2023-06-10T07:01:02;17.33;;;3.55;;
60370;SDS011;48550;40.588;49.684;2023-06-10T07:03:28;10.00;;;2.80;;
60370;SDS011;48550;40.588;49.684;2023-06-10T07:05:53;11.65;;;3.05;;
60370;SDS011;48550;40.588;49.684;2023-06-10T07:08:19;9.68;;;2.65;;
60370;SDS011;48550;40.588;49.684;2023-06-10T07:10:45;5.45;;;2.80;;
60370;SDS011;48550;40.588;49.684;2023-06-10T07:13:11;7.15;;;2.50;;
60370;SDS011;48550;40.588;49.684;2023-06-10T07:15:36;9.48;;;2.42;;
60370;SDS011;48550;40.588;49.684;2023-06-10T07:18:04;9.40;;;2.60;;
60370;SDS011;48550;40.588;49.684;2023-06-10T07:20:30;13.43;;;3.10;;
60370;SDS011;48550;40.588;49.684;2023-06-10T07:22:55;11.25;;;2.70;;
60370;SDS011;48550;40.588;49.684;2023-06-10T07:25:21;8.25;;;2.60;;
60370;SDS011;48550;40.588;49.684;2023-06-10T07:27:47;9.68;;;2.50;;
60370;SDS011;48550;40.588;49.684;2023-06-10T07:30:13;11.20;;;2.80;;
60370;SDS011;48550;40.588;49.684;2023-06-10T07:32:39;8.43;;;2.80;;
60370;SDS011;48550;40.588;49.684;2023-06-10T07:35:07;7.20;;;2.83;;
60370;SDS011;48550;40.588;49.684;2023-06-10T07:37:35;8.23;;;2.83;;
60370;SDS011;48550;40.588;49.684;2023-06-10T07:40:01;8.65;;;2.67;;
60370;SDS011;48550;40.588;49.684;2023-06-10T07:42:27;9.80;;;2.55;;
60370;SDS011;48550;40.588;49.684;2023-06-10T07:44:53;6.65;;;3.10;;
60370;SDS011;48550;40.588;49.684;2023-06-10T07:47:19;5.95;;;2.80;;
60370;SDS011;48550;40.588;49.684;2023-06-10T07:49:45;9.18;;;2.83;;
60370;SDS011;48550;40.588;49.684;2023-06-10T07:52:10;6.97;;;2.75;;
60370;SDS011;48550;40.588;49.684;2023-06-10T07:54:36;12.93;;;3.67;;
60370;SDS011;48550;40.588;49.684;2023-06-10T07:57:02;10.80;;;3.08;;
60370;SDS011;48550;40.588;49.684;2023-06-10T07:59:28;8.55;;;3.15;;
60370;SDS011;48550;40.588;49.684;2023-06-10T08:01:54;7.65;;;3.22;;
60370;SDS011;48550;40.588;49.684;2023-06-10T08:04:20;9.63;;;2.90;;
60370;SDS011;48550;40.588;49.684;2023-06-10T08:06:45;10.63;;;3.25;;
60370;SDS011;48550;40.588;49.684;2023-06-10T08:09:11;9.48;;;2.67;;
60370;SDS011;48550;40.588;49.684;2023-06-10T08:11:37;12.25;;;3.88;;
60370;SDS011;48550;40.588;49.684;2023-06-10T08:14:02;8.48;;;2.97;;
60370;SDS011;48550;40.588;49.684;2023-06-10T08:16:28;13.23;;;3.95;;
60370;SDS011;48550;40.588;49.684;2023-06-10T08:18:54;10.18;;;3.53;;
60370;SDS011;48550;40.588;49.684;2023-06-10T08:21:19;10.07;;;2.92;;
60370;SDS011;48550;40.588;49.684;2023-06-10T08:23:45;10.07;;;3.20;;
60370;SDS011;48550;40.588;49.684;2023-06-10T08:26:11;10.75;;;3.10;;
60370;SDS011;48550;40.588;49.684;2023-06-10T08:28:37;6.38;;;2.72;;
60370;SDS011;48550;40.588;49.684;2023-06-10T08:31:05;7.15;;;2.70;;
60370;SDS011;48550;40.588;49.684;2023-06-10T08:33:30;6.95;;;3.70;;
60370;SDS011;48550;40.588;49.684;2023-06-10T08:35:56;8.90;;;2.70;;
60370;SDS011;48550;40.588;49.684;2023-06-10T08:38:22;8.85;;;3.10;;
60370;SDS011;48550;40.588;49.684;2023-06-10T08:40:47;7.38;;;3.55;;
60370;SDS011;48550;40.588;49.684;2023-06-10T08:43:17;20.10;;;3.30;;
60370;SDS011;48550;40.588;49.684;2023-06-10T08:45:49;7.53;;;3.47;;
60370;SDS011;48550;40.588;49.684;2023-06-10T08:48:21;9.75;;;3.28;;
60370;SDS011;48550;40.588;49.684;2023-06-10T08:50:47;5.75;;;3.10;;
60370;SDS011;48550;40.588;49.684;2023-06-10T08:53:17;13.27;;;3.45;;
60370;SDS011;48550;40.588;49.684;2023-06-10T08:55:44;9.68;;;4.10;;
60370;SDS011;48550;40.588;49.684;2023-06-10T08:58:17;12.70;;;3.75;;
60370;SDS011;48550;40.588;49.684;2023-06-10T09:00:44;10.88;;;4.15;;
60370;SDS011;48550;40.588;49.684;2023-06-10T09:03:10;16.60;;;4.20;;
60370;SDS011;48550;40.588;49.684;2023-06-10T09:05:36;10.85;;;2.80;;
60370;SDS011;48550;40.588;49.684;2023-06-10T09:08:03;8.50;;;2.63;;
60370;SDS011;48550;40.588;49.684;2023-06-10T09:10:30;5.38;;;3.20;;
60370;SDS011;48550;40.588;49.684;2023-06-10T09:12:57;9.23;;;3.30;;
60370;SDS011;48550;40.588;49.684;2023-06-10T09:15:23;14.63;;;3.38;;
60370;SDS011;48550;40.588;49.684;2023-06-10T09:17:49;9.27;;;3.10;;
60370;SDS011;48550;40.588;49.684;2023-06-10T09:20:16;11.73;;;3.35;;
60370;SDS011;48550;40.588;49.684;2023-06-10T09:22:42;11.63;;;3.40;;
60370;SDS011;48550;40.588;49.684;2023-06-10T09:25:09;7.47;;;3.30;;
60370;SDS011;48550;40.588;49.684;2023-06-10T09:27:46;10.77;;;3.15;;
60370;SDS011;48550;40.588;49.684;2023-06-10T09:32:52;10.45;;;3.08;;
60370;SDS011;48550;40.588;49.684;2023-06-10T09:35:21;10.15;;;3.33;;
60370;SDS011;48550;40.588;49.684;2023-06-10T09:37:54;7.38;;;2.80;;
60370;SDS011;48550;40.588;49.684;2023-06-10T09:40:20;10.15;;;3.15;;
60370;SDS011;48550;40.588;49.684;2023-06-10T09:42:47;17.02;;;3.50;;
60370;SDS011;48550;40.588;49.684;2023-06-10T09:45:20;5.88;;;2.78;;
60370;SDS011;48550;40.588;49.684;2023-06-10T09:47:47;9.20;;;3.42;;
60370;SDS011;48550;40.588;49.684;2023-06-10T09:50:16;10.43;;;3.97;;
60370;SDS011;48550;40.588;49.684;2023-06-10T09:52:42;6.53;;;2.90;;
60370;SDS011;48550;40.588;49.684;2023-06-10T09:55:11;12.48;;;3.38;;
60370;SDS011;48550;40.588;49.684;2023-06-10T09:57:37;7.88;;;3.10;;
60370;SDS011;48550;40.588;49.684;2023-06-10T10:00:07;6.40;;;2.83;;
60370;SDS011;48550;40.588;49.684;2023-06-10T10:02:45;6.07;;;2.70;;
60370;SDS011;48550;40.588;49.684;2023-06-10T10:05:15;8.98;;;3.30;;
60370;SDS011;48550;40.588;49.684;2023-06-10T10:07:42;8.88;;;3.25;;
60370;SDS011;48550;40.588;49.684;2023-06-10T10:10:09;8.15;;;3.00;;
60370;SDS011;48550;40.588;49.684;2023-06-10T10:12:36;7.60;;;3.42;;
60370;SDS011;48550;40.588;49.684;2023-06-10T10:15:03;9.60;;;3.22;;
60370;SDS011;48550;40.588;49.684;2023-06-10T10:17:33;9.40;;;3.13;;
60370;SDS011;48550;40.588;49.684;2023-06-10T10:20:04;7.85;;;3.00;;
60370;SDS011;48550;40.588;49.684;2023-06-10T10:22:35;7.63;;;3.17;;
60370;SDS011;48550;40.588;49.684;2023-06-10T10:25:28;11.10;;;3.30;;
60370;SDS011;48550;40.588;49.684;2023-06-10T10:28:13;7.70;;;3.30;;
60370;SDS011;48550;40.588;49.684;2023-06-10T10:30:46;8.93;;;2.80;;
60370;SDS011;48550;40.588;49.684;2023-06-10T10:33:22;10.85;;;3.50;;
60370;SDS011;48550;40.588;49.684;2023-06-10T10:35:53;10.15;;;2.88;;
60370;SDS011;48550;40.588;49.684;2023-06-10T10:38:21;11.68;;;3.10;;
60370;SDS011;48550;40.588;49.684;2023-06-10T10:40:47;9.55;;;3.42;;
60370;SDS011;48550;40.588;49.684;2023-06-10T10:43:14;11.15;;;3.70;;
60370;SDS011;48550;40.588;49.684;2023-06-10T10:45:41;16.52;;;3.58;;
60370;SDS011;48550;40.588;49.684;2023-06-10T10:48:08;13.32;;;3.47;;
60370;SDS011;48550;40.588;49.684;2023-06-10T10:50:38;7.55;;;2.92;;
60370;SDS011;48550;40.588;49.684;2023-06-10T10:53:05;9.80;;;3.28;;
60370;SDS011;48550;40.588;49.684;2023-06-10T10:55:31;9.05;;;3.13;;
60370;SDS011;48550;40.588;49.684;2023-06-10T10:57:58;10.77;;;2.95;;
60370;SDS011;48550;40.588;49.684;2023-06-10T11:00:34;10.10;;;3.00;;
60370;SDS011;48550;40.588;49.684;2023-06-10T11:05:41;10.27;;;2.95;;
60370;SDS011;48550;40.588;49.684;2023-06-10T11:08:09;14.00;;;4.28;;
60370;SDS011;48550;40.588;49.684;2023-06-10T11:10:37;11.50;;;3.65;;
60370;SDS011;48550;40.588;49.684;2023-06-10T11:13:08;12.68;;;3.47;;
60370;SDS011;48550;40.588;49.684;2023-06-10T11:15:44;7.82;;;3.10;;
60370;SDS011;48550;40.588;49.684;2023-06-10T11:18:24;8.70;;;3.30;;
60370;SDS011;48550;40.588;49.684;2023-06-10T11:20:52;13.25;;;3.05;;
60370;SDS011;48550;40.588;49.684;2023-06-10T11:31:24;7.30;;;3.10;;
60370;SDS011;48550;40.588;49.684;2023-06-10T11:33:57;7.78;;;2.88;;
60370;SDS011;48550;40.588;49.684;2023-06-10T11:36:25;9.53;;;2.90;;
60370;SDS011;48550;40.588;49.684;2023-06-10T11:38:55;8.25;;;2.90;;
60370;SDS011;48550;40.588;49.684;2023-06-10T11:41:26;8.15;;;3.35;;
60370;SDS011;48550;40.588;49.684;2023-06-10T11:43:56;10.25;;;3.92;;
60370;SDS011;48550;40.588;49.684;2023-06-10T11:46:26;8.23;;;3.03;;
60370;SDS011;48550;40.588;49.684;2023-06-10T11:48:53;10.13;;;3.10;;
60370;SDS011;48550;40.588;49.684;2023-06-10T11:51:20;11.52;;;3.88;;
60370;SDS011;48550;40.588;49.684;2023-06-10T11:53:49;10.27;;;3.22;;
60370;SDS011;48550;40.588;49.684;2023-06-10T11:56:22;10.85;;;3.50;;
60370;SDS011;48550;40.588;49.684;2023-06-10T11:58:55;9.00;;;3.10;;
60370;SDS011;48550;40.588;49.684;2023-06-10T12:01:23;8.73;;;3.33;;
60370;SDS011;48550;40.588;49.684;2023-06-10T12:04:23;7.47;;;2.97;;
60370;SDS011;48550;40.588;49.684;2023-06-10T12:06:50;8.48;;;2.92;;
60370;SDS011;48550;40.588;49.684;2023-06-10T12:09:18;8.85;;;3.22;;
60370;SDS011;48550;40.588;49.684;2023-06-10T12:12:02;8.30;;;3.10;;
60370;SDS011;48550;40.588;49.684;2023-06-10T12:17:35;7.22;;;3.13;;
60370;SDS011;48550;40.588;49.684;2023-06-10T12:20:09;10.40;;;2.95;;
60370;SDS011;48550;40.588;49.684;2023-06-10T12:22:50;8.32;;;3.53;;
60370;SDS011;48550;40.588;49.684;2023-06-10T12:25:15;6.13;;;3.22;;
60370;SDS011;48550;40.588;49.684;2023-06-10T12:27:50;7.05;;;2.97;;
60370;SDS011;48550;40.588;49.684;2023-06-10T12:30:18;7.95;;;2.90;;
60370;SDS011;48550;40.588;49.684;2023-06-10T12:32:46;6.78;;;2.80;;
60370;SDS011;48550;40.588;49.684;2023-06-10T12:35:18;9.60;;;3.10;;
60370;SDS011;48550;40.588;49.684;2023-06-10T12:38:02;8.48;;;3.60;;
60370;SDS011;48550;40.588;49.684;2023-06-10T12:40:36;7.35;;;3.10;;
60370;SDS011;48550;40.588;49.684;2023-06-10T12:43:05;5.93;;;2.67;;
60370;SDS011;48550;40.588;49.684;2023-06-10T12:45:31;17.70;;;3.88;;
60370;SDS011;48550;40.588;49.684;2023-06-10T12:48:06;10.95;;;3.53;;
60370;SDS011;48550;40.588;49.684;2023-06-10T12:50:37;10.23;;;3.00;;
60370;SDS011;48550;40.588;49.684;2023-06-10T12:53:04;10.35;;;3.83;;
60370;SDS011;48550;40.588;49.684;2023-06-10T12:55:31;9.52;;;3.83;;
60370;SDS011;48550;40.588;49.684;2023-06-10T12:57:57;18.85;;;10.70;;
60370;SDS011;48550;40.588;49.684;2023-06-10T13:00:23;8.32;;;3.10;;
60370;SDS011;48550;40.588;49.684;2023-06-10T13:02:55;9.48;;;3.75;;
60370;SDS011;48550;40.588;49.684;2023-06-10T13:05:21;10.38;;;3.55;;
60370;SDS011;48550;40.588;49.684;2023-06-10T13:07:47;10.15;;;3.95;;
60370;SDS011;48550;40.588;49.684;2023-06-10T13:10:14;13.45;;;3.90;;
60370;SDS011;48550;40.588;49.684;2023-06-10T13:12:40;10.75;;;3.13;;
60370;SDS011;48550;40.588;49.684;2023-06-10T13:15:06;15.55;;;5.93;;
60370;SDS011;48550;40.588;49.684;2023-06-10T13:17:32;10.65;;;4.90;;
60370;SDS011;48550;40.588;49.684;2023-06-10T13:20:04;12.43;;;3.17;;
60370;SDS011;48550;40.588;49.684;2023-06-10T13:22:32;8.38;;;3.05;;
60370;SDS011;48550;40.588;49.684;2023-06-10T13:25:00;7.60;;;3.00;;
60370;SDS011;48550;40.588;49.684;2023-06-10T13:27:26;12.32;;;3.17;;
60370;SDS011;48550;40.588;49.684;2023-06-10T13:29:52;12.63;;;4.10;;
60370;SDS011;48550;40.588;49.684;2023-06-10T13:32:18;16.75;;;6.55;;
60370;SDS011;48550;40.588;49.684;2023-06-10T13:34:44;6.13;;;3.45;;
60370;SDS011;48550;40.588;49.684;2023-06-10T13:37:10;10.73;;;3.22;;
60370;SDS011;48550;40.588;49.684;2023-06-10T13:39:38;10.20;;;2.70;;
60370;SDS011;48550;40.588;49.684;2023-06-10T13:42:04;10.77;;;3.88;;
60370;SDS011;48550;40.588;49.684;2023-06-10T13:44:33;11.10;;;3.58;;
60370;SDS011;48550;40.588;49.684;2023-06-10T13:47:01;11.27;;;3.90;;
60370;SDS011;48550;40.588;49.684;2023-06-10T13:49:28;12.05;;;4.45;;
60370;SDS011;48550;40.588;49.684;2023-06-10T13:51:54;11.38;;;3.65;;
60370;SDS011;48550;40.588;49.684;2023-06-10T13:54:19;9.13;;;3.90;;
60370;SDS011;48550;40.588;49.684;2023-06-10T13:56:46;7.50;;;3.13;;
60370;SDS011;48550;40.588;49.684;2023-06-10T13:59:12;7.47;;;3.33;;
60370;SDS011;48550;40.588;49.684;2023-06-10T14:01:38;15.85;;;6.10;;
60370;SDS011;48550;40.588;49.684;2023-06-10T14:04:06;13.85;;;3.72;;
60370;SDS011;48550;40.588;49.684;2023-06-10T14:06:32;10.75;;;2.97;;
60370;SDS011;48550;40.588;49.684;2023-06-10T14:08:59;10.57;;;3.72;;
60370;SDS011;48550;40.588;49.684;2023-06-10T14:11:25;8.45;;;3.70;;
60370;SDS011;48550;40.588;49.684;2023-06-10T14:13:50;11.57;;;3.95;;
60370;SDS011;48550;40.588;49.684;2023-06-10T14:16:16;8.68;;;2.60;;
60370;SDS011;48550;40.588;49.684;2023-06-10T14:18:42;7.88;;;3.15;;
60370;SDS011;48550;40.588;49.684;2023-06-10T14:21:08;8.65;;;4.03;;
60370;SDS011;48550;40.588;49.684;2023-06-10T14:23:33;11.57;;;4.15;;
60370;SDS011;48550;40.588;49.684;2023-06-10T14:25:59;6.00;;;2.95;;
60370;SDS011;48550;40.588;49.684;2023-06-10T14:28:27;9.32;;;3.35;;
60370;SDS011;48550;40.588;49.684;2023-06-10T14:30:54;10.25;;;4.38;;
60370;SDS011;48550;40.588;49.684;2023-06-10T14:33:19;11.20;;;3.60;;
60370;SDS011;48550;40.588;49.684;2023-06-10T14:35:45;15.25;;;5.10;;
60370;SDS011;48550;40.588;49.684;2023-06-10T14:38:11;6.47;;;3.58;;
60370;SDS011;48550;40.588;49.684;2023-06-10T14:40:37;10.98;;;4.00;;
60370;SDS011;48550;40.588;49.684;2023-06-10T14:43:03;10.70;;;3.80;;
60370;SDS011;48550;40.588;49.684;2023-06-10T14:45:34;9.13;;;3.83;;
60370;SDS011;48550;40.588;49.684;2023-06-10T14:48:04;13.52;;;4.28;;
60370;SDS011;48550;40.588;49.684;2023-06-10T14:50:30;11.43;;;4.53;;
60370;SDS011;48550;40.588;49.684;2023-06-10T14:52:57;11.45;;;4.10;;
60370;SDS011;48550;40.588;49.684;2023-06-10T14:55:26;9.00;;;3.40;;